METAR Data
IDs: Format: Raw Decoded Include TAF

Data at: 0752 UTC 23 Feb 2019

PASK 230656Z AUTO 13021G26KT 1/2SM SN FZFG SCT011 OVC017 M05/M06 A3008 RMK AO2 SLP183 P0000 T10501061 FZRANO $
PASK 230629Z AUTO 1/2SM SN FZFG OVC011 M05/M06 A3007 RMK AO2 P0000 FZRANO $
PASK 230556Z AUTO 1/4SM +SN FZFG OVC011 M05/M06 A3007 RMK AO2 SLP179 P0000 60000 T10501061 11050 21061 50002 FZRANO $
PASK 230535Z AUTO 1/4SM +SN FZFG OVC014 M05/M06 A3006 RMK AO2 P0000 FZRANO $
PASK 230510Z AUTO 13023G27KT 1/4SM +SN FZFG OVC016 M05/M06 A3007 RMK AO2 PK WND 13027/0510 P0000 FZRANO $
PASK 230456Z AUTO 13020KT 1/2SM SN FZFG OVC016 M06/M06 A3007 RMK AO2 PK WND 12026/0401 SLP180 P0000 T10561061 FZRANO $
PASK 230413Z AUTO 13021KT 1/2SM SN FZFG FEW016 OVC023 M06/M07 A3007 RMK AO2 PK WND 12026/0401 P0000 FZRANO $
PASK 230356Z AUTO 13022G26KT 1/4SM SN FZFG OVC023 M06/M07 A3007 RMK AO2 PK WND 14030/0310 SLP179 P0000 T10611067 FZRANO $
PASK 230256Z AUTO 14023G28KT 1/4SM SN FZFG OVC027 M06/M06 A3006 RMK AO2 PK WND 14028/0255 SLP177 P0000 60000 T10561061 58010 FZRANO $
PASK 230237Z AUTO 14022G28KT 1/4SM SN FZFG OVC029 M06/M06 A3007 RMK AO2 PK WND 14028/0237 P0000 FZRANO $
PASK 230230Z AUTO 14022G27KT 1/4SM SN FZFG OVC031 M06/M06 A3007 RMK AO2 PK WND 13028/0218 P0000 FZRANO $
PASK 230217Z AUTO 13019G26KT 1/2SM -SN FZFG OVC031 M06/M07 A3008 RMK AO2 PK WND 13027/0201 P0000 FZRANO $
PASK 230208Z AUTO 13020G27KT 1/2SM -SN FZFG OVC029 M06/M07 A3008 RMK AO2 PK WND 13027/0201 P0000 FZRANO $
PASK 230156Z AUTO 13020G28KT 1/4SM -SN FZFG OVC029 M06/M07 A3008 RMK AO2 PK WND 14028/0153 SLP183 P0000 T10561067 FZRANO $
PASK 230153Z AUTO 13022G28KT 1/4SM SN FZFG OVC029 M06/M07 A3008 RMK AO2 PK WND 14028/0153 P0000 FZRANO $
PASK 230056Z AUTO 13021G25KT 1/4SM SN FZFG OVC035 M06/M07 A3009 RMK AO2 SLP187 P0000 T10561067 FZRANO $
PASK 230051Z AUTO 13020G25KT 1/2SM -SN FZFG OVC035 M06/M07 A3009 RMK AO2 P0000 FZRANO $
PASK 230037Z AUTO 12019G24KT 3/4SM -SN BR OVC033 M06/M07 A3010 RMK AO2 P0000 FZRANO $
PASK 230010Z AUTO 12017G22KT 1 1/2SM -SN BR SCT026 OVC033 M06/M07 A3011 RMK AO2 P0000 FZRANO $
PASK 230004Z AUTO 12017G22KT 1SM -SN BR BKN026 OVC033 M06/M07 A3011 RMK AO2 P0000 FZRANO $
PASK 222353Z AUTO 12018KT 1/2SM -SN FZFG BKN024 OVC031 M06/M07 A3012 RMK AO2 SLP195 P0000 60000 T10611072 11061 21094 58013 FZRANO $
PASK 222352Z AUTO 12017KT 1/2SM -SN FZFG OVC024 M06/M07 A3012 RMK AO2 P0000 FZRANO $
PASK 222342Z AUTO 12018KT 1SM -SN BR OVC024 M06/M07 A3012 RMK AO2 P0000 FZRANO $
PASK 222332Z AUTO 12019KT 1/2SM -SN FZFG BKN026 OVC032 M06/M08 A3012 RMK AO2 P0000 FZRANO $
PASK 222325Z AUTO 12019KT 1/2SM -SN FZFG SCT026 OVC032 M06/M08 A3012 RMK AO2 P0000 FZRANO $
PASK 222321Z AUTO 12017KT 3/4SM -SN BR BKN026 OVC035 M06/M08 A3013 RMK AO2 P0000 FZRANO $
PASK 222256Z AUTO 09014G19KT 3/4SM -SN BR BKN034 OVC044 M07/M08 A3014 RMK AO2 SLP202 P0000 T10721083 FZRANO $
PASK 222237Z AUTO 10014KT 1SM -SN BR FEW026 OVC044 M07/M08 A3014 RMK AO2 P0000 FZRANO $
PASK 222220Z AUTO 09016KT 2SM -SN BR SCT021 SCT027 OVC046 M08/M09 A3014 RMK AO2 VIS 1 1/4V3 P0000 FZRANO $
PASK 222204Z AUTO 10016G20KT 3SM -SN BR BKN021 OVC042 M08/M09 A3014 RMK AO2 P0000 FZRANO $
PASK 222156Z AUTO 10016KT 1 1/2SM -SN BR OVC019 M08/M09 A3014 RMK AO2 SLP204 P0000 T10781094 FZRANO $
PASK 222141Z AUTO 10014KT 1 1/2SM -SN BR OVC021 M08/M09 A3015 RMK AO2 P0000 FZRANO $
PASK 222119Z AUTO 09014KT 1SM -SN BR BKN023 OVC036 M08/M10 A3015 RMK AO2 P0000 FZRANO $
PASK 222113Z AUTO 09015KT 1 1/4SM -SN BR FEW023 SCT028 OVC036 M08/M10 A3015 RMK AO2 P0000 FZRANO $
PASK 222056Z AUTO 10012KT 2 1/2SM -SN BR BKN030 OVC038 M08/M10 A3015 RMK AO2 SLP208 P0000 60000 T10831100 52003 FZRANO $
PASK 222036Z AUTO 08012KT 3SM -SN BR OVC030 M08/M11 A3016 RMK AO2 P0000 FZRANO $
PASK 222027Z AUTO 09013KT 1 3/4SM -SN BR OVC032 M08/M11 A3016 RMK AO2 P0000 FZRANO $
PASK 221956Z AUTO 08016KT 7SM -SN BKN032 OVC050 M09/M11 A3015 RMK AO2 SNB20 SLP207 P0000 T10891106 FZRANO $
PASK 221856Z AUTO 09016KT 10SM OVC047 M09/M11 A3014 RMK AO2 SNE49 SLP205 P0000 T10941111 FZRANO $
PASK 221756Z AUTO 10016KT 10SM -SN OVC043 M11/M12 A3014 RMK AO2 SNB55 SLP204 6//// T11061122 11089 21117 56008 FZRANO $
PASK 221656Z AUTO 05011KT 10SM BKN070 M11/M13 A3015 RMK AO2 SLP207 T11111133 FZRANO $
PASK 221556Z AUTO 07014KT 10SM CLR M11/M12 A3016 RMK AO2 SLP210 T11061122 FZRANO $
PASK 221456Z AUTO 05008KT 10SM SCT045 M10/M12 A3017 RMK AO2 SLP213 60000 T11001117 51006 FZRANO $
PASK 221356Z AUTO 08013KT 10SM SCT023 OVC040 M09/M11 A3016 RMK AO2 SNE49 SLP211 P0000 T10891111 FZRANO $
PASK 221339Z AUTO 08013KT 9SM -SN BKN023 OVC032 M09/M11 A3016 RMK AO2 P0000 FZRANO $
PASK 221256Z AUTO 05012KT 10SM -SN OVC032 M10/M12 A3016 RMK AO2 SNE23B55 SLP210 P0000 T11001117 FZRANO $
PASK 221227Z AUTO 06012KT 9SM SCT023 OVC030 M10/M12 A3016 RMK AO2 SNE23 P0000 FZRANO $
PASK 221156Z AUTO 06013KT 9SM -SN OVC028 M11/M12 A3015 RMK AO2 SLP207 P0000 60000 7//// T11061122 11106 21161 50006 FZRANO $
PASK 221112Z AUTO 06010KT 9SM -SN OVC028 M11/M13 A3015 RMK AO2 P0000 FZRANO $
PASK 221056Z AUTO 06011KT 9SM -SN OVC030 M11/M13 A3015 RMK AO2 SLP208 P0000 T11111128 FZRANO $
PASK 220956Z AUTO 09014KT 8SM -SN SCT027 BKN035 OVC049 M12/M14 A3014 RMK AO2 SNB14 SLP202 P0000 T11171139 FZRANO $
PASK 220856Z AUTO 07013KT 10SM SCT050 OVC065 M13/M16 A3013 RMK AO2 SLP200 T11331156 411111161 53007 FZRANO $
PASK 220827Z AUTO 06014KT 10SM SCT027 BKN036 M14/M16 A3013 RMK AO2 FZRANO $
PASK 220756Z AUTO 07015KT 10SM BKN029 M15/M17 A3012 RMK AO2 SLP197 T11501172 FZRANO $
PASK 220749Z AUTO 07016KT 10SM BKN029 M15/M17 A3012 RMK AO2 FZRANO $
PASK 220656Z AUTO 07016KT 10SM BKN030 BKN040 OVC050 M16/M18 A3011 RMK AO2 SLP194 T11561178 FZRANO $
PASK 220556Z AUTO 06013KT 10SM CLR M16/M18 A3011 RMK AO2 SLP193 60000 T11611183 11111 21161 51010 FZRANO $
PASK 220456Z AUTO 07013KT 10SM CLR M16/M18 A3010 RMK AO2 SLP191 T11561183 FZRANO $
PASK 220356Z AUTO 06013KT 10SM FEW039 M14/M17 A3010 RMK AO2 SLP188 T11441172 FZRANO $
PASK 220256Z AUTO 06014KT 10SM BKN035 OVC042 M12/M16 A3008 RMK AO2 SNE02 SLP183 P0000 60000 T11221156 51005 FZRANO $
PASK 220156Z AUTO 07013KT 9SM -SN OVC050 M13/M16 A3008 RMK AO2 SLP182 P0000 T11281156 FZRANO $
PASK 220056Z AUTO 07016KT 9SM -SN FEW029 OVC036 M12/M15 A3007 RMK AO2 SNB26 SLP180 P0000 T11171150 FZRANO $
PASK 212356Z AUTO 07017KT 10SM SCT034 OVC040 M12/M15 A3006 RMK AO2 SLP177 6//// T11171150 11117 21144 51012 FZRANO $
PASK 212256Z AUTO 08019KT 10SM OVC042 M12/M16 A3005 RMK AO2 SLP173 T11221156 FZRANO $
PASK 212156Z AUTO 08018KT 10SM SCT040 M12/M16 A3004 RMK AO2 SNE03B20E36 SLP170 P0000 T11221156 FZRANO $
PASK 212056Z AUTO 07017KT 8SM -SN FEW040 M12/M15 A3003 RMK AO2 SNB09 SLP165 P0000 60000 T11221150 53013 FZRANO $
PASK 211956Z AUTO 06017KT 10SM BKN055 M14/M17 A3001 RMK AO2 SLP160 T11391167 FZRANO $